Aviation Digital Data Service (ADDS)

Output produced by METARs form (0709 UTC 19 February 2019)
found at http://www.aviationweather.gov/metar/data/
 
METAR text: UBBG 190700Z 32022KT 9999 SCT030 BKN083 09/M06 Q1014 R30/CLRD// NOSIG
Conditions at: UBBG (GYANDZHA , AZ) observed 0700 UTC 19 February 2019
Temperature: 9.0°C (48°F)
Dewpoint: -6.0°C (21°F) [RH = 34%]
Pressure (altimeter): 29.94 inches Hg (1014.0 mb)
Winds: from the NW (320 degrees) at 25 MPH (22 knots; 11.3 m/s)
Visibility: 6 or more miles (10+ km)
Ceiling: 8300 feet AGL
Clouds: scattered clouds at 3000 feet AGL
broken clouds at 8300 feet AGL
Weather: no significant weather observed at this time

METAR text: UBBG 190630Z 30018KT 9999 SCT030 BKN083 09/M06 Q1014 R30/CLRD// NOSIG
Conditions at: UBBG (GYANDZHA , AZ) observed 0630 UTC 19 February 2019
Temperature: 9.0°C (48°F)
Dewpoint: -6.0°C (21°F) [RH = 34%]
Pressure (altimeter): 29.94 inches Hg (1014.0 mb)
Winds: from the WNW (300 degrees) at 21 MPH (18 knots; 9.3 m/s)
Visibility: 6 or more miles (10+ km)
Ceiling: 8300 feet AGL
Clouds: scattered clouds at 3000 feet AGL
broken clouds at 8300 feet AGL
Weather: no significant weather observed at this time

METAR text: UBBG 190600Z 30016KT 9999 SCT030 BKN083 08/M03 Q1014 R30/CLRD// NOSIG
Conditions at: UBBG (GYANDZHA , AZ) observed 0600 UTC 19 February 2019
Temperature: 8.0°C (46°F)
Dewpoint: -3.0°C (27°F) [RH = 46%]
Pressure (altimeter): 29.94 inches Hg (1014.0 mb)
Winds: from the WNW (300 degrees) at 18 MPH (16 knots; 8.2 m/s)
Visibility: 6 or more miles (10+ km)
Ceiling: 8300 feet AGL
Clouds: scattered clouds at 3000 feet AGL
broken clouds at 8300 feet AGL
Weather: no significant weather observed at this time

METAR text: UBBG 190530Z 31016KT 9999 SCT030 BKN083 07/M03 Q1013 R30/CLRD// NOSIG
Conditions at: UBBG (GYANDZHA , AZ) observed 0530 UTC 19 February 2019
Temperature: 7.0°C (45°F)
Dewpoint: -3.0°C (27°F) [RH = 49%]
Pressure (altimeter): 29.91 inches Hg (1013.0 mb)
Winds: from the NW (310 degrees) at 18 MPH (16 knots; 8.2 m/s)
Visibility: 6 or more miles (10+ km)
Ceiling: 8300 feet AGL
Clouds: scattered clouds at 3000 feet AGL
broken clouds at 8300 feet AGL
Weather: no significant weather observed at this time

METAR text: UBBG 190500Z 31014KT 9999 SCT030 BKN083 06/M02 Q1013 R30/CLRD// NOSIG
Conditions at: UBBG (GYANDZHA , AZ) observed 0500 UTC 19 February 2019
Temperature: 6.0°C (43°F)
Dewpoint: -2.0°C (28°F) [RH = 56%]
Pressure (altimeter): 29.91 inches Hg (1013.0 mb)
Winds: from the NW (310 degrees) at 16 MPH (14 knots; 7.2 m/s)
Visibility: 6 or more miles (10+ km)
Ceiling: 8300 feet AGL
Clouds: scattered clouds at 3000 feet AGL
broken clouds at 8300 feet AGL
Weather: no significant weather observed at this time

METAR text: UBBG 190430Z 30014KT 9999 SCT030 BKN083 05/M01 Q1012 R30/CLRD// NOSIG
Conditions at: UBBG (GYANDZHA , AZ) observed 0430 UTC 19 February 2019
Temperature: 5.0°C (41°F)
Dewpoint: -1.0°C (30°F) [RH = 65%]
Pressure (altimeter): 29.88 inches Hg (1012.0 mb)
Winds: from the WNW (300 degrees) at 16 MPH (14 knots; 7.2 m/s)
Visibility: 6 or more miles (10+ km)
Ceiling: 8300 feet AGL
Clouds: scattered clouds at 3000 feet AGL
broken clouds at 8300 feet AGL
Weather: no significant weather observed at this time

METAR text: UBBG 190400Z 30012KT 9999 BKN083 05/M00 Q1011 R30/CLRD// NOSIG
Conditions at: UBBG (GYANDZHA , AZ) observed 0400 UTC 19 February 2019
Temperature: 5.0°C (41°F)
Dewpoint: 0.0°C (32°F) [RH = 70%]
Pressure (altimeter): 29.85 inches Hg (1011.0 mb)
Winds: from the WNW (300 degrees) at 14 MPH (12 knots; 6.2 m/s)
Visibility: 6 or more miles (10+ km)
Ceiling: 8300 feet AGL
Clouds: broken clouds at 8300 feet AGL
Weather: no significant weather observed at this time

METAR text: UBBG 190330Z 28010KT 9999 BKN083 06/M00 Q1011 R30/CLRD// NOSIG
Conditions at: UBBG (GYANDZHA , AZ) observed 0330 UTC 19 February 2019
Temperature: 6.0°C (43°F)
Dewpoint: 0.0°C (32°F) [RH = 65%]
Pressure (altimeter): 29.85 inches Hg (1011.0 mb)
Winds: from the W (280 degrees) at 12 MPH (10 knots; 5.1 m/s)
Visibility: 6 or more miles (10+ km)
Ceiling: 8300 feet AGL
Clouds: broken clouds at 8300 feet AGL
Weather: no significant weather observed at this time

METAR text: UBBG 190300Z 29016KT 9999 SCT100 07/M00 Q1010 R30/CLRD// NOSIG
Conditions at: UBBG (GYANDZHA , AZ) observed 0300 UTC 19 February 2019
Temperature: 7.0°C (45°F)
Dewpoint: 0.0°C (32°F) [RH = 61%]
Pressure (altimeter): 29.82 inches Hg (1010.0 mb)
Winds: from the WNW (290 degrees) at 18 MPH (16 knots; 8.2 m/s)
Visibility: 6 or more miles (10+ km)
Ceiling: at least 12,000 feet AGL
Clouds: scattered clouds at 10000 feet AGL
Weather: no significant weather observed at this time

METAR text: UBBG 190230Z 30010KT 9999 SCT100 06/M00 Q1010 R30/CLRD// NOSIG
Conditions at: UBBG (GYANDZHA , AZ) observed 0230 UTC 19 February 2019
Temperature: 6.0°C (43°F)
Dewpoint: 0.0°C (32°F) [RH = 65%]
Pressure (altimeter): 29.82 inches Hg (1010.0 mb)
Winds: from the WNW (300 degrees) at 12 MPH (10 knots; 5.1 m/s)
Visibility: 6 or more miles (10+ km)
Ceiling: at least 12,000 feet AGL
Clouds: scattered clouds at 10000 feet AGL
Weather: no significant weather observed at this time

METAR text: UBBG 190200Z 28008KT 9999 SCT100 06/M01 Q1010 R30/CLRD// NOSIG
Conditions at: UBBG (GYANDZHA , AZ) observed 0200 UTC 19 February 2019
Temperature: 6.0°C (43°F)
Dewpoint: -1.0°C (30°F) [RH = 61%]
Pressure (altimeter): 29.82 inches Hg (1010.0 mb)
Winds: from the W (280 degrees) at 9 MPH (8 knots; 4.1 m/s)
Visibility: 6 or more miles (10+ km)
Ceiling: at least 12,000 feet AGL
Clouds: scattered clouds at 10000 feet AGL
Weather: no significant weather observed at this time

METAR text: UBBG 190130Z 27008KT 230V310 9999 SCT100 06/M01 Q1010 R30/CLRD// NOSIG
Conditions at: UBBG (GYANDZHA , AZ) observed 0130 UTC 19 February 2019
Temperature: 6.0°C (43°F)
Dewpoint: -1.0°C (30°F) [RH = 61%]
Pressure (altimeter): 29.82 inches Hg (1010.0 mb)
Winds: from the W (270 degrees) at 9 MPH (8 knots; 4.1 m/s)
Visibility: 6 or more miles (10+ km)
Ceiling: at least 12,000 feet AGL
Clouds: scattered clouds at 10000 feet AGL
Weather: no significant weather observed at this time

METAR text: UBBG 190100Z 20006KT 9999 SCT100 05/M00 Q1009 R30/CLRD// NOSIG
Conditions at: UBBG (GYANDZHA , AZ) observed 0100 UTC 19 February 2019
Temperature: 5.0°C (41°F)
Dewpoint: 0.0°C (32°F) [RH = 70%]
Pressure (altimeter): 29.79 inches Hg (1009.0 mb)
Winds: from the SSW (200 degrees) at 7 MPH (6 knots; 3.1 m/s)
Visibility: 6 or more miles (10+ km)
Ceiling: at least 12,000 feet AGL
Clouds: scattered clouds at 10000 feet AGL
Weather: no significant weather observed at this time

METAR text: UBBG 190030Z 26010KT 9999 SCT100 05/M01 Q1009 R30/CLRD// NOSIG
Conditions at: UBBG (GYANDZHA , AZ) observed 0030 UTC 19 February 2019
Temperature: 5.0°C (41°F)
Dewpoint: -1.0°C (30°F) [RH = 65%]
Pressure (altimeter): 29.79 inches Hg (1009.0 mb)
Winds: from the W (260 degrees) at 12 MPH (10 knots; 5.1 m/s)
Visibility: 6 or more miles (10+ km)
Ceiling: at least 12,000 feet AGL
Clouds: scattered clouds at 10000 feet AGL
Weather: no significant weather observed at this time

METAR text: UBBG 190000Z 28010KT 9999 SCT100 05/M01 Q1009 R30/CLRD// NOSIG
Conditions at: UBBG (GYANDZHA , AZ) observed 0000 UTC 19 February 2019
Temperature: 5.0°C (41°F)
Dewpoint: -1.0°C (30°F) [RH = 65%]
Pressure (altimeter): 29.79 inches Hg (1009.0 mb)
Winds: from the W (280 degrees) at 12 MPH (10 knots; 5.1 m/s)
Visibility: 6 or more miles (10+ km)
Ceiling: at least 12,000 feet AGL
Clouds: scattered clouds at 10000 feet AGL
Weather: no significant weather observed at this time

METAR text: UBBG 182330Z 30008KT 9999 SCT100 05/M02 Q1009 R30/CLRD// NOSIG
Conditions at: UBBG (GYANDZHA , AZ) observed 2330 UTC 18 February 2019
Temperature: 5.0°C (41°F)
Dewpoint: -2.0°C (28°F) [RH = 60%]
Pressure (altimeter): 29.79 inches Hg (1009.0 mb)
Winds: from the WNW (300 degrees) at 9 MPH (8 knots; 4.1 m/s)
Visibility: 6 or more miles (10+ km)
Ceiling: at least 12,000 feet AGL
Clouds: scattered clouds at 10000 feet AGL
Weather: no significant weather observed at this time

METAR text: UBBG 182300Z 29012KT 9999 BKN066 05/M02 Q1009 R30/CLRD// NOSIG
Conditions at: UBBG (GYANDZHA , AZ) observed 2300 UTC 18 February 2019
Temperature: 5.0°C (41°F)
Dewpoint: -2.0°C (28°F) [RH = 60%]
Pressure (altimeter): 29.79 inches Hg (1009.0 mb)
Winds: from the WNW (290 degrees) at 14 MPH (12 knots; 6.2 m/s)
Visibility: 6 or more miles (10+ km)
Ceiling: 6600 feet AGL
Clouds: broken clouds at 6600 feet AGL
Weather: no significant weather observed at this time

METAR text: UBBG 182230Z 30010KT 9999 BKN066 05/M02 Q1009 R30/CLRD// NOSIG
Conditions at: UBBG (GYANDZHA , AZ) observed 2230 UTC 18 February 2019
Temperature: 5.0°C (41°F)
Dewpoint: -2.0°C (28°F) [RH = 60%]
Pressure (altimeter): 29.79 inches Hg (1009.0 mb)
Winds: from the WNW (300 degrees) at 12 MPH (10 knots; 5.1 m/s)
Visibility: 6 or more miles (10+ km)
Ceiling: 6600 feet AGL
Clouds: broken clouds at 6600 feet AGL
Weather: no significant weather observed at this time

METAR text: UBBG 182200Z 29006KT 250V350 9999 BKN066 06/M02 Q1009 R30/CLRD// NOSIG
Conditions at: UBBG (GYANDZHA , AZ) observed 2200 UTC 18 February 2019
Temperature: 6.0°C (43°F)
Dewpoint: -2.0°C (28°F) [RH = 56%]
Pressure (altimeter): 29.79 inches Hg (1009.0 mb)
Winds: from the WNW (290 degrees) at 7 MPH (6 knots; 3.1 m/s)
Visibility: 6 or more miles (10+ km)
Ceiling: 6600 feet AGL
Clouds: broken clouds at 6600 feet AGL
Weather: no significant weather observed at this time

METAR text: UBBG 182130Z 29008KT 9999 BKN066 06/M02 Q1009 R30/CLRD// NOSIG
Conditions at: UBBG (GYANDZHA , AZ) observed 2130 UTC 18 February 2019
Temperature: 6.0°C (43°F)
Dewpoint: -2.0°C (28°F) [RH = 56%]
Pressure (altimeter): 29.79 inches Hg (1009.0 mb)
Winds: from the WNW (290 degrees) at 9 MPH (8 knots; 4.1 m/s)
Visibility: 6 or more miles (10+ km)
Ceiling: 6600 feet AGL
Clouds: broken clouds at 6600 feet AGL
Weather: no significant weather observed at this time

METAR text: UBBG 182100Z 29010KT 9999 BKN066 07/M03 Q1008 R30/CLRD// NOSIG
Conditions at: UBBG (GYANDZHA , AZ) observed 2100 UTC 18 February 2019
Temperature: 7.0°C (45°F)
Dewpoint: -3.0°C (27°F) [RH = 49%]
Pressure (altimeter): 29.76 inches Hg (1008.0 mb)
Winds: from the WNW (290 degrees) at 12 MPH (10 knots; 5.1 m/s)
Visibility: 6 or more miles (10+ km)
Ceiling: 6600 feet AGL
Clouds: broken clouds at 6600 feet AGL
Weather: no significant weather observed at this time

METAR text: UBBG 182030Z 29012KT 9999 BKN066 07/M03 Q1008 R30/CLRD// NOSIG
Conditions at: UBBG (GYANDZHA , AZ) observed 2030 UTC 18 February 2019
Temperature: 7.0°C (45°F)
Dewpoint: -3.0°C (27°F) [RH = 49%]
Pressure (altimeter): 29.76 inches Hg (1008.0 mb)
Winds: from the WNW (290 degrees) at 14 MPH (12 knots; 6.2 m/s)
Visibility: 6 or more miles (10+ km)
Ceiling: 6600 feet AGL
Clouds: broken clouds at 6600 feet AGL
Weather: no significant weather observed at this time

METAR text: UBBG 182000Z 30012KT 9999 SCT100 06/M03 Q1008 R30/CLRD// NOSIG
Conditions at: UBBG (GYANDZHA , AZ) observed 2000 UTC 18 February 2019
Temperature: 6.0°C (43°F)
Dewpoint: -3.0°C (27°F) [RH = 52%]
Pressure (altimeter): 29.76 inches Hg (1008.0 mb)
Winds: from the WNW (300 degrees) at 14 MPH (12 knots; 6.2 m/s)
Visibility: 6 or more miles (10+ km)
Ceiling: at least 12,000 feet AGL
Clouds: scattered clouds at 10000 feet AGL
Weather: no significant weather observed at this time

METAR text: UBBG 181930Z 31016KT 9999 SCT100 07/M03 Q1008 R30/CLRD// NOSIG
Conditions at: UBBG (GYANDZHA , AZ) observed 1930 UTC 18 February 2019
Temperature: 7.0°C (45°F)
Dewpoint: -3.0°C (27°F) [RH = 49%]
Pressure (altimeter): 29.76 inches Hg (1008.0 mb)
Winds: from the NW (310 degrees) at 18 MPH (16 knots; 8.2 m/s)
Visibility: 6 or more miles (10+ km)
Ceiling: at least 12,000 feet AGL
Clouds: scattered clouds at 10000 feet AGL
Weather: no significant weather observed at this time

METAR text: UBBG 181900Z 30014KT 9999 SCT100 08/M03 Q1008 R30/CLRD// NOSIG
Conditions at: UBBG (GYANDZHA , AZ) observed 1900 UTC 18 February 2019
Temperature: 8.0°C (46°F)
Dewpoint: -3.0°C (27°F) [RH = 46%]
Pressure (altimeter): 29.76 inches Hg (1008.0 mb)
Winds: from the WNW (300 degrees) at 16 MPH (14 knots; 7.2 m/s)
Visibility: 6 or more miles (10+ km)
Ceiling: at least 12,000 feet AGL
Clouds: scattered clouds at 10000 feet AGL
Weather: no significant weather observed at this time

METAR text: UBBG 181830Z 29018KT 9999 SCT100 08/M03 Q1007 R30/CLRD// NOSIG
Conditions at: UBBG (GYANDZHA , AZ) observed 1830 UTC 18 February 2019
Temperature: 8.0°C (46°F)
Dewpoint: -3.0°C (27°F) [RH = 46%]
Pressure (altimeter): 29.73 inches Hg (1007.0 mb)
Winds: from the WNW (290 degrees) at 21 MPH (18 knots; 9.3 m/s)
Visibility: 6 or more miles (10+ km)
Ceiling: at least 12,000 feet AGL
Clouds: scattered clouds at 10000 feet AGL
Weather: no significant weather observed at this time

METAR text: UBBG 181800Z 29020KT 9999 SCT100 08/M03 Q1007 R30/CLRD// NOSIG
Conditions at: UBBG (GYANDZHA , AZ) observed 1800 UTC 18 February 2019
Temperature: 8.0°C (46°F)
Dewpoint: -3.0°C (27°F) [RH = 46%]
Pressure (altimeter): 29.73 inches Hg (1007.0 mb)
Winds: from the WNW (290 degrees) at 23 MPH (20 knots; 10.3 m/s)
Visibility: 6 or more miles (10+ km)
Ceiling: at least 12,000 feet AGL
Clouds: scattered clouds at 10000 feet AGL
Weather: no significant weather observed at this time

METAR text: UBBG 181730Z 29020G30KT 9999 SCT100 09/M04 Q1007 R30/CLRD// NOSIG
Conditions at: UBBG (GYANDZHA , AZ) observed 1730 UTC 18 February 2019
Temperature: 9.0°C (48°F)
Dewpoint: -4.0°C (25°F) [RH = 40%]
Pressure (altimeter): 29.73 inches Hg (1007.0 mb)
Winds: from the WNW (290 degrees) at 23 MPH (20 knots; 10.3 m/s)
gusting to 34 MPH (30 knots; 15.4 m/s)
Visibility: 6 or more miles (10+ km)
Ceiling: at least 12,000 feet AGL
Clouds: scattered clouds at 10000 feet AGL
Weather: no significant weather observed at this time

METAR text: UBBG 181700Z 28022KT 9999 SCT100 09/M04 Q1007 R30/CLRD// NOSIG
Conditions at: UBBG (GYANDZHA , AZ) observed 1700 UTC 18 February 2019
Temperature: 9.0°C (48°F)
Dewpoint: -4.0°C (25°F) [RH = 40%]
Pressure (altimeter): 29.73 inches Hg (1007.0 mb)
Winds: from the W (280 degrees) at 25 MPH (22 knots; 11.3 m/s)
Visibility: 6 or more miles (10+ km)
Ceiling: at least 12,000 feet AGL
Clouds: scattered clouds at 10000 feet AGL
Weather: no significant weather observed at this time

METAR text: UBBG 181630Z 30022KT 9999 SCT100 08/M03 Q1006 R30/CLRD// NOSIG
Conditions at: UBBG (GYANDZHA , AZ) observed 1630 UTC 18 February 2019
Temperature: 8.0°C (46°F)
Dewpoint: -3.0°C (27°F) [RH = 46%]
Pressure (altimeter): 29.70 inches Hg (1006.0 mb)
Winds: from the WNW (300 degrees) at 25 MPH (22 knots; 11.3 m/s)
Visibility: 6 or more miles (10+ km)
Ceiling: at least 12,000 feet AGL
Clouds: scattered clouds at 10000 feet AGL
Weather: no significant weather observed at this time

METAR text: UBBG 181600Z 30018G28KT 9999 SCT100 09/M03 Q1006 R30/CLRD// NOSIG
Conditions at: UBBG (GYANDZHA , AZ) observed 1600 UTC 18 February 2019
Temperature: 9.0°C (48°F)
Dewpoint: -3.0°C (27°F) [RH = 43%]
Pressure (altimeter): 29.70 inches Hg (1006.0 mb)
Winds: from the WNW (300 degrees) at 21 MPH (18 knots; 9.3 m/s)
gusting to 32 MPH (28 knots; 14.4 m/s)
Visibility: 6 or more miles (10+ km)
Ceiling: at least 12,000 feet AGL
Clouds: scattered clouds at 10000 feet AGL
Weather: no significant weather observed at this time

METAR text: UBBG 181530Z 30018KT 9999 SCT100 09/M03 Q1006 R30/CLRD// NOSIG
Conditions at: UBBG (GYANDZHA , AZ) observed 1530 UTC 18 February 2019
Temperature: 9.0°C (48°F)
Dewpoint: -3.0°C (27°F) [RH = 43%]
Pressure (altimeter): 29.70 inches Hg (1006.0 mb)
Winds: from the WNW (300 degrees) at 21 MPH (18 knots; 9.3 m/s)
Visibility: 6 or more miles (10+ km)
Ceiling: at least 12,000 feet AGL
Clouds: scattered clouds at 10000 feet AGL
Weather: no significant weather observed at this time

METAR text: UBBG 181500Z 30022KT 9999 BKN083 10/M02 Q1005 R30/CLRD// NOSIG
Conditions at: UBBG (GYANDZHA , AZ) observed 1500 UTC 18 February 2019
Temperature: 10.0°C (50°F)
Dewpoint: -2.0°C (28°F) [RH = 43%]
Pressure (altimeter): 29.68 inches Hg (1005.0 mb)
Winds: from the WNW (300 degrees) at 25 MPH (22 knots; 11.3 m/s)
Visibility: 6 or more miles (10+ km)
Ceiling: 8300 feet AGL
Clouds: broken clouds at 8300 feet AGL
Weather: no significant weather observed at this time

METAR text: UBBG 181430Z 29016KT 9999 BKN083 10/M02 Q1005 R30/CLRD// NOSIG
Conditions at: UBBG (GYANDZHA , AZ) observed 1430 UTC 18 February 2019
Temperature: 10.0°C (50°F)
Dewpoint: -2.0°C (28°F) [RH = 43%]
Pressure (altimeter): 29.68 inches Hg (1005.0 mb)
Winds: from the WNW (290 degrees) at 18 MPH (16 knots; 8.2 m/s)
Visibility: 6 or more miles (10+ km)
Ceiling: 8300 feet AGL
Clouds: broken clouds at 8300 feet AGL
Weather: no significant weather observed at this time

METAR text: UBBG 181400Z 28020KT 9999 BKN083 10/M02 Q1005 R30/CLRD// NOSIG
Conditions at: UBBG (GYANDZHA , AZ) observed 1400 UTC 18 February 2019
Temperature: 10.0°C (50°F)
Dewpoint: -2.0°C (28°F) [RH = 43%]
Pressure (altimeter): 29.68 inches Hg (1005.0 mb)
Winds: from the W (280 degrees) at 23 MPH (20 knots; 10.3 m/s)
Visibility: 6 or more miles (10+ km)
Ceiling: 8300 feet AGL
Clouds: broken clouds at 8300 feet AGL
Weather: no significant weather observed at this time

METAR text: UBBG 181330Z 30024KT 9999 SCT100 11/M02 Q1005 R30/CLRD// NOSIG
Conditions at: UBBG (GYANDZHA , AZ) observed 1330 UTC 18 February 2019
Temperature: 11.0°C (52°F)
Dewpoint: -2.0°C (28°F) [RH = 40%]
Pressure (altimeter): 29.68 inches Hg (1005.0 mb)
Winds: from the WNW (300 degrees) at 28 MPH (24 knots; 12.3 m/s)
Visibility: 6 or more miles (10+ km)
Ceiling: at least 12,000 feet AGL
Clouds: scattered clouds at 10000 feet AGL
Weather: no significant weather observed at this time

METAR text: UBBG 181300Z 30026KT 9999 SCT100 12/M02 Q1005 R30/CLRD// NOSIG
Conditions at: UBBG (GYANDZHA , AZ) observed 1300 UTC 18 February 2019
Temperature: 12.0°C (54°F)
Dewpoint: -2.0°C (28°F) [RH = 38%]
Pressure (altimeter): 29.68 inches Hg (1005.0 mb)
Winds: from the WNW (300 degrees) at 30 MPH (26 knots; 13.4 m/s)
Visibility: 6 or more miles (10+ km)
Ceiling: at least 12,000 feet AGL
Clouds: scattered clouds at 10000 feet AGL
Weather: no significant weather observed at this time

METAR text: UBBG 181230Z 30026KT 9999 SCT100 12/M02 Q1005 R30/CLRD// NOSIG
Conditions at: UBBG (GYANDZHA , AZ) observed 1230 UTC 18 February 2019
Temperature: 12.0°C (54°F)
Dewpoint: -2.0°C (28°F) [RH = 38%]
Pressure (altimeter): 29.68 inches Hg (1005.0 mb)
Winds: from the WNW (300 degrees) at 30 MPH (26 knots; 13.4 m/s)
Visibility: 6 or more miles (10+ km)
Ceiling: at least 12,000 feet AGL
Clouds: scattered clouds at 10000 feet AGL
Weather: no significant weather observed at this time

METAR text: UBBG 181200Z 30024G34KT 9999 SCT100 12/M02 Q1005 R30/CLRD// NOSIG
Conditions at: UBBG (GYANDZHA , AZ) observed 1200 UTC 18 February 2019
Temperature: 12.0°C (54°F)
Dewpoint: -2.0°C (28°F) [RH = 38%]
Pressure (altimeter): 29.68 inches Hg (1005.0 mb)
Winds: from the WNW (300 degrees) at 28 MPH (24 knots; 12.3 m/s)
gusting to 39 MPH (34 knots; 17.5 m/s)
Visibility: 6 or more miles (10+ km)
Ceiling: at least 12,000 feet AGL
Clouds: scattered clouds at 10000 feet AGL
Weather: no significant weather observed at this time

METAR text: UBBG 181130Z 31022G32KT 9999 SCT100 13/M02 Q1005 R30/CLRD// NOSIG
Conditions at: UBBG (GYANDZHA , AZ) observed 1130 UTC 18 February 2019
Temperature: 13.0°C (55°F)
Dewpoint: -2.0°C (28°F) [RH = 35%]
Pressure (altimeter): 29.68 inches Hg (1005.0 mb)
Winds: from the NW (310 degrees) at 25 MPH (22 knots; 11.3 m/s)
gusting to 37 MPH (32 knots; 16.5 m/s)
Visibility: 6 or more miles (10+ km)
Ceiling: at least 12,000 feet AGL
Clouds: scattered clouds at 10000 feet AGL
Weather: no significant weather observed at this time

METAR text: UBBG 181100Z 29020KT 9999 FEW100 14/M02 Q1005 R30/CLRD// NOSIG
Conditions at: UBBG (GYANDZHA , AZ) observed 1100 UTC 18 February 2019
Temperature: 14.0°C (57°F)
Dewpoint: -2.0°C (28°F) [RH = 33%]
Pressure (altimeter): 29.68 inches Hg (1005.0 mb)
Winds: from the WNW (290 degrees) at 23 MPH (20 knots; 10.3 m/s)
Visibility: 6 or more miles (10+ km)
Ceiling: at least 12,000 feet AGL
Clouds: few clouds at 10000 feet AGL
Weather: no significant weather observed at this time

METAR text: UBBG 181030Z 30018G28KT 9999 FEW100 14/M01 Q1006 R30/CLRD// NOSIG
Conditions at: UBBG (GYANDZHA , AZ) observed 1030 UTC 18 February 2019
Temperature: 14.0°C (57°F)
Dewpoint: -1.0°C (30°F) [RH = 36%]
Pressure (altimeter): 29.70 inches Hg (1006.0 mb)
Winds: from the WNW (300 degrees) at 21 MPH (18 knots; 9.3 m/s)
gusting to 32 MPH (28 knots; 14.4 m/s)
Visibility: 6 or more miles (10+ km)
Ceiling: at least 12,000 feet AGL
Clouds: few clouds at 10000 feet AGL
Weather: no significant weather observed at this time

METAR text: UBBG 181000Z 30018KT 9999 FEW100 13/M02 Q1006 R30/CLRD// NOSIG
Conditions at: UBBG (GYANDZHA , AZ) observed 1000 UTC 18 February 2019
Temperature: 13.0°C (55°F)
Dewpoint: -2.0°C (28°F) [RH = 35%]
Pressure (altimeter): 29.70 inches Hg (1006.0 mb)
Winds: from the WNW (300 degrees) at 21 MPH (18 knots; 9.3 m/s)
Visibility: 6 or more miles (10+ km)
Ceiling: at least 12,000 feet AGL
Clouds: few clouds at 10000 feet AGL
Weather: no significant weather observed at this time

METAR text: UBBG 180930Z 31016G26KT 9999 FEW100 13/M01 Q1007 R30/CLRD// NOSIG
Conditions at: UBBG (GYANDZHA , AZ) observed 0930 UTC 18 February 2019
Temperature: 13.0°C (55°F)
Dewpoint: -1.0°C (30°F) [RH = 38%]
Pressure (altimeter): 29.73 inches Hg (1007.0 mb)
Winds: from the NW (310 degrees) at 18 MPH (16 knots; 8.2 m/s)
gusting to 30 MPH (26 knots; 13.4 m/s)
Visibility: 6 or more miles (10+ km)
Ceiling: at least 12,000 feet AGL
Clouds: few clouds at 10000 feet AGL
Weather: no significant weather observed at this time

METAR text: UBBG 180900Z 30016KT 9999 FEW100 12/M01 Q1008 R30/CLRD// NOSIG
Conditions at: UBBG (GYANDZHA , AZ) observed 0900 UTC 18 February 2019
Temperature: 12.0°C (54°F)
Dewpoint: -1.0°C (30°F) [RH = 40%]
Pressure (altimeter): 29.76 inches Hg (1008.0 mb)
Winds: from the WNW (300 degrees) at 18 MPH (16 knots; 8.2 m/s)
Visibility: 6 or more miles (10+ km)
Ceiling: at least 12,000 feet AGL
Clouds: few clouds at 10000 feet AGL
Weather: no significant weather observed at this time

METAR text: UBBG 180830Z 31014KT 9999 FEW100 11/M03 Q1008 R30/CLRD// NOSIG
Conditions at: UBBG (GYANDZHA , AZ) observed 0830 UTC 18 February 2019
Temperature: 11.0°C (52°F)
Dewpoint: -3.0°C (27°F) [RH = 37%]
Pressure (altimeter): 29.76 inches Hg (1008.0 mb)
Winds: from the NW (310 degrees) at 16 MPH (14 knots; 7.2 m/s)
Visibility: 6 or more miles (10+ km)
Ceiling: at least 12,000 feet AGL
Clouds: few clouds at 10000 feet AGL
Weather: no significant weather observed at this time

METAR text: UBBG 180800Z 32016KT 9999 FEW100 10/M02 Q1009 R30/CLRD// NOSIG
Conditions at: UBBG (GYANDZHA , AZ) observed 0800 UTC 18 February 2019
Temperature: 10.0°C (50°F)
Dewpoint: -2.0°C (28°F) [RH = 43%]
Pressure (altimeter): 29.79 inches Hg (1009.0 mb)
Winds: from the NW (320 degrees) at 18 MPH (16 knots; 8.2 m/s)
Visibility: 6 or more miles (10+ km)
Ceiling: at least 12,000 feet AGL
Clouds: few clouds at 10000 feet AGL
Weather: no significant weather observed at this time

METAR text: UBBG 180730Z 32016KT 9999 FEW100 10/M02 Q1009 R30/CLRD// NOSIG
Conditions at: UBBG (GYANDZHA , AZ) observed 0730 UTC 18 February 2019
Temperature: 10.0°C (50°F)
Dewpoint: -2.0°C (28°F) [RH = 43%]
Pressure (altimeter): 29.79 inches Hg (1009.0 mb)
Winds: from the NW (320 degrees) at 18 MPH (16 knots; 8.2 m/s)
Visibility: 6 or more miles (10+ km)
Ceiling: at least 12,000 feet AGL
Clouds: few clouds at 10000 feet AGL
Weather: no significant weather observed at this time

METAR text: UBBG 180700Z 30016KT 9999 FEW100 09/M03 Q1010 R30/CLRD// NOSIG
Conditions at: UBBG (GYANDZHA , AZ) observed 0700 UTC 18 February 2019
Temperature: 9.0°C (48°F)
Dewpoint: -3.0°C (27°F) [RH = 43%]
Pressure (altimeter): 29.82 inches Hg (1010.0 mb)
Winds: from the WNW (300 degrees) at 18 MPH (16 knots; 8.2 m/s)
Visibility: 6 or more miles (10+ km)
Ceiling: at least 12,000 feet AGL
Clouds: few clouds at 10000 feet AGL
Weather: no significant weather observed at this time

METAR text: UBBG 180630Z 29016KT 9999 FEW100 08/M02 Q1010 R30/CLRD// NOSIG
Conditions at: UBBG (GYANDZHA , AZ) observed 0630 UTC 18 February 2019
Temperature: 8.0°C (46°F)
Dewpoint: -2.0°C (28°F) [RH = 49%]
Pressure (altimeter): 29.82 inches Hg (1010.0 mb)
Winds: from the WNW (290 degrees) at 18 MPH (16 knots; 8.2 m/s)
Visibility: 6 or more miles (10+ km)
Ceiling: at least 12,000 feet AGL
Clouds: few clouds at 10000 feet AGL
Weather: no significant weather observed at this time

METAR text: UBBG 180600Z 29016KT 9999 FEW100 07/M02 Q1011 R30/CLRD// NOSIG
Conditions at: UBBG (GYANDZHA , AZ) observed 0600 UTC 18 February 2019
Temperature: 7.0°C (45°F)
Dewpoint: -2.0°C (28°F) [RH = 53%]
Pressure (altimeter): 29.85 inches Hg (1011.0 mb)
Winds: from the WNW (290 degrees) at 18 MPH (16 knots; 8.2 m/s)
Visibility: 6 or more miles (10+ km)
Ceiling: at least 12,000 feet AGL
Clouds: few clouds at 10000 feet AGL
Weather: no significant weather observed at this time

METAR text: UBBG 180530Z 31018KT 9999 FEW100 06/M03 Q1011 R30/CLRD// NOSIG
Conditions at: UBBG (GYANDZHA , AZ) observed 0530 UTC 18 February 2019
Temperature: 6.0°C (43°F)
Dewpoint: -3.0°C (27°F) [RH = 52%]
Pressure (altimeter): 29.85 inches Hg (1011.0 mb)
Winds: from the NW (310 degrees) at 21 MPH (18 knots; 9.3 m/s)
Visibility: 6 or more miles (10+ km)
Ceiling: at least 12,000 feet AGL
Clouds: few clouds at 10000 feet AGL
Weather: no significant weather observed at this time

METAR text: UBBG 180500Z 29018KT 9999 FEW100 05/M03 Q1011 R30/CLRD// NOSIG
Conditions at: UBBG (GYANDZHA , AZ) observed 0500 UTC 18 February 2019
Temperature: 5.0°C (41°F)
Dewpoint: -3.0°C (27°F) [RH = 56%]
Pressure (altimeter): 29.85 inches Hg (1011.0 mb)
Winds: from the WNW (290 degrees) at 21 MPH (18 knots; 9.3 m/s)
Visibility: 6 or more miles (10+ km)
Ceiling: at least 12,000 feet AGL
Clouds: few clouds at 10000 feet AGL
Weather: no significant weather observed at this time

METAR text: UBBG 180430Z 29016KT 9999 FEW100 04/M03 Q1011 R30/CLRD// NOSIG
Conditions at: UBBG (GYANDZHA , AZ) observed 0430 UTC 18 February 2019
Temperature: 4.0°C (39°F)
Dewpoint: -3.0°C (27°F) [RH = 60%]
Pressure (altimeter): 29.85 inches Hg (1011.0 mb)
Winds: from the WNW (290 degrees) at 18 MPH (16 knots; 8.2 m/s)
Visibility: 6 or more miles (10+ km)
Ceiling: at least 12,000 feet AGL
Clouds: few clouds at 10000 feet AGL
Weather: no significant weather observed at this time

METAR text: UBBG 180400Z 28014KT 9999 FEW100 04/M03 Q1011 R30/CLRD// NOSIG
Conditions at: UBBG (GYANDZHA , AZ) observed 0400 UTC 18 February 2019
Temperature: 4.0°C (39°F)
Dewpoint: -3.0°C (27°F) [RH = 60%]
Pressure (altimeter): 29.85 inches Hg (1011.0 mb)
Winds: from the W (280 degrees) at 16 MPH (14 knots; 7.2 m/s)
Visibility: 6 or more miles (10+ km)
Ceiling: at least 12,000 feet AGL
Clouds: few clouds at 10000 feet AGL
Weather: no significant weather observed at this time

METAR text: UBBG 180330Z 28014KT 9999 FEW100 04/M03 Q1012 R30/CLRD// NOSIG
Conditions at: UBBG (GYANDZHA , AZ) observed 0330 UTC 18 February 2019
Temperature: 4.0°C (39°F)
Dewpoint: -3.0°C (27°F) [RH = 60%]
Pressure (altimeter): 29.88 inches Hg (1012.0 mb)
Winds: from the W (280 degrees) at 16 MPH (14 knots; 7.2 m/s)
Visibility: 6 or more miles (10+ km)
Ceiling: at least 12,000 feet AGL
Clouds: few clouds at 10000 feet AGL
Weather: no significant weather observed at this time

METAR text: UBBG 180300Z 28014KT 9999 FEW100 04/M03 Q1012 R30/CLRD// NOSIG
Conditions at: UBBG (GYANDZHA , AZ) observed 0300 UTC 18 February 2019
Temperature: 4.0°C (39°F)
Dewpoint: -3.0°C (27°F) [RH = 60%]
Pressure (altimeter): 29.88 inches Hg (1012.0 mb)
Winds: from the W (280 degrees) at 16 MPH (14 knots; 7.2 m/s)
Visibility: 6 or more miles (10+ km)
Ceiling: at least 12,000 feet AGL
Clouds: few clouds at 10000 feet AGL
Weather: no significant weather observed at this time

METAR text: UBBG 180230Z 28018KT 9999 FEW100 04/M03 Q1012 R30/CLRD// NOSIG
Conditions at: UBBG (GYANDZHA , AZ) observed 0230 UTC 18 February 2019
Temperature: 4.0°C (39°F)
Dewpoint: -3.0°C (27°F) [RH = 60%]
Pressure (altimeter): 29.88 inches Hg (1012.0 mb)
Winds: from the W (280 degrees) at 21 MPH (18 knots; 9.3 m/s)
Visibility: 6 or more miles (10+ km)
Ceiling: at least 12,000 feet AGL
Clouds: few clouds at 10000 feet AGL
Weather: no significant weather observed at this time

METAR text: UBBG 180200Z 27020KT 9999 FEW100 05/M03 Q1012 R30/CLRD// NOSIG
Conditions at: UBBG (GYANDZHA , AZ) observed 0200 UTC 18 February 2019
Temperature: 5.0°C (41°F)
Dewpoint: -3.0°C (27°F) [RH = 56%]
Pressure (altimeter): 29.88 inches Hg (1012.0 mb)
Winds: from the W (270 degrees) at 23 MPH (20 knots; 10.3 m/s)
Visibility: 6 or more miles (10+ km)
Ceiling: at least 12,000 feet AGL
Clouds: few clouds at 10000 feet AGL
Weather: no significant weather observed at this time

METAR text: UBBG 180130Z 28018KT 9999 FEW100 05/M03 Q1013 R30/CLRD// NOSIG
Conditions at: UBBG (GYANDZHA , AZ) observed 0130 UTC 18 February 2019
Temperature: 5.0°C (41°F)
Dewpoint: -3.0°C (27°F) [RH = 56%]
Pressure (altimeter): 29.91 inches Hg (1013.0 mb)
Winds: from the W (280 degrees) at 21 MPH (18 knots; 9.3 m/s)
Visibility: 6 or more miles (10+ km)
Ceiling: at least 12,000 feet AGL
Clouds: few clouds at 10000 feet AGL
Weather: no significant weather observed at this time

METAR text: UBBG 180100Z 28016KT 9999 FEW100 04/M03 Q1013 R30/CLRD// NOSIG
Conditions at: UBBG (GYANDZHA , AZ) observed 0100 UTC 18 February 2019
Temperature: 4.0°C (39°F)
Dewpoint: -3.0°C (27°F) [RH = 60%]
Pressure (altimeter): 29.91 inches Hg (1013.0 mb)
Winds: from the W (280 degrees) at 18 MPH (16 knots; 8.2 m/s)
Visibility: 6 or more miles (10+ km)
Ceiling: at least 12,000 feet AGL
Clouds: few clouds at 10000 feet AGL
Weather: no significant weather observed at this time

METAR text: UBBG 180030Z 28014KT 9999 FEW100 04/M03 Q1013 R30/CLRD// NOSIG
Conditions at: UBBG (GYANDZHA , AZ) observed 0030 UTC 18 February 2019
Temperature: 4.0°C (39°F)
Dewpoint: -3.0°C (27°F) [RH = 60%]
Pressure (altimeter): 29.91 inches Hg (1013.0 mb)
Winds: from the W (280 degrees) at 16 MPH (14 knots; 7.2 m/s)
Visibility: 6 or more miles (10+ km)
Ceiling: at least 12,000 feet AGL
Clouds: few clouds at 10000 feet AGL
Weather: no significant weather observed at this time

METAR text: UBBG 180000Z 28016KT 9999 FEW100 04/M03 Q1014 R30/CLRD// NOSIG
Conditions at: UBBG (GYANDZHA , AZ) observed 0000 UTC 18 February 2019
Temperature: 4.0°C (39°F)
Dewpoint: -3.0°C (27°F) [RH = 60%]
Pressure (altimeter): 29.94 inches Hg (1014.0 mb)
Winds: from the W (280 degrees) at 18 MPH (16 knots; 8.2 m/s)
Visibility: 6 or more miles (10+ km)
Ceiling: at least 12,000 feet AGL
Clouds: few clouds at 10000 feet AGL
Weather: no significant weather observed at this time

METAR text: UBBG 172330Z 28018KT 9999 FEW100 05/M03 Q1014 R30/CLRD// NOSIG
Conditions at: UBBG (GYANDZHA , AZ) observed 2330 UTC 17 February 2019
Temperature: 5.0°C (41°F)
Dewpoint: -3.0°C (27°F) [RH = 56%]
Pressure (altimeter): 29.94 inches Hg (1014.0 mb)
Winds: from the W (280 degrees) at 21 MPH (18 knots; 9.3 m/s)
Visibility: 6 or more miles (10+ km)
Ceiling: at least 12,000 feet AGL
Clouds: few clouds at 10000 feet AGL
Weather: no significant weather observed at this time

METAR text: UBBG 172300Z 28014KT 9999 FEW100 04/M03 Q1014 R30/CLRD// NOSIG
Conditions at: UBBG (GYANDZHA , AZ) observed 2300 UTC 17 February 2019
Temperature: 4.0°C (39°F)
Dewpoint: -3.0°C (27°F) [RH = 60%]
Pressure (altimeter): 29.94 inches Hg (1014.0 mb)
Winds: from the W (280 degrees) at 16 MPH (14 knots; 7.2 m/s)
Visibility: 6 or more miles (10+ km)
Ceiling: at least 12,000 feet AGL
Clouds: few clouds at 10000 feet AGL
Weather: no significant weather observed at this time

METAR text: UBBG 172230Z 28012KT 9999 FEW100 05/M03 Q1015 R30/CLRD// NOSIG
Conditions at: UBBG (GYANDZHA , AZ) observed 2230 UTC 17 February 2019
Temperature: 5.0°C (41°F)
Dewpoint: -3.0°C (27°F) [RH = 56%]
Pressure (altimeter): 29.97 inches Hg (1015.0 mb)
Winds: from the W (280 degrees) at 14 MPH (12 knots; 6.2 m/s)
Visibility: 6 or more miles (10+ km)
Ceiling: at least 12,000 feet AGL
Clouds: few clouds at 10000 feet AGL
Weather: no significant weather observed at this time

METAR text: UBBG 172200Z 29016KT 9999 FEW100 05/M03 Q1014 R30/CLRD// NOSIG
Conditions at: UBBG (GYANDZHA , AZ) observed 2200 UTC 17 February 2019
Temperature: 5.0°C (41°F)
Dewpoint: -3.0°C (27°F) [RH = 56%]
Pressure (altimeter): 29.94 inches Hg (1014.0 mb)
Winds: from the WNW (290 degrees) at 18 MPH (16 knots; 8.2 m/s)
Visibility: 6 or more miles (10+ km)
Ceiling: at least 12,000 feet AGL
Clouds: few clouds at 10000 feet AGL
Weather: no significant weather observed at this time

METAR text: UBBG 172130Z 26014KT 9999 FEW100 05/M03 Q1015 R30/CLRD// NOSIG
Conditions at: UBBG (GYANDZHA , AZ) observed 2130 UTC 17 February 2019
Temperature: 5.0°C (41°F)
Dewpoint: -3.0°C (27°F) [RH = 56%]
Pressure (altimeter): 29.97 inches Hg (1015.0 mb)
Winds: from the W (260 degrees) at 16 MPH (14 knots; 7.2 m/s)
Visibility: 6 or more miles (10+ km)
Ceiling: at least 12,000 feet AGL
Clouds: few clouds at 10000 feet AGL
Weather: no significant weather observed at this time

METAR text: UBBG 172100Z 27012KT 9999 FEW100 05/M03 Q1015 R30/CLRD// NOSIG
Conditions at: UBBG (GYANDZHA , AZ) observed 2100 UTC 17 February 2019
Temperature: 5.0°C (41°F)
Dewpoint: -3.0°C (27°F) [RH = 56%]
Pressure (altimeter): 29.97 inches Hg (1015.0 mb)
Winds: from the W (270 degrees) at 14 MPH (12 knots; 6.2 m/s)
Visibility: 6 or more miles (10+ km)
Ceiling: at least 12,000 feet AGL
Clouds: few clouds at 10000 feet AGL
Weather: no significant weather observed at this time

METAR text: UBBG 172030Z 28014KT 9999 FEW100 05/M03 Q1015 R30/CLRD// NOSIG
Conditions at: UBBG (GYANDZHA , AZ) observed 2030 UTC 17 February 2019
Temperature: 5.0°C (41°F)
Dewpoint: -3.0°C (27°F) [RH = 56%]
Pressure (altimeter): 29.97 inches Hg (1015.0 mb)
Winds: from the W (280 degrees) at 16 MPH (14 knots; 7.2 m/s)
Visibility: 6 or more miles (10+ km)
Ceiling: at least 12,000 feet AGL
Clouds: few clouds at 10000 feet AGL
Weather: no significant weather observed at this time

METAR text: UBBG 172000Z 28014KT 9999 FEW100 06/M03 Q1015 R30/CLRD// NOSIG
Conditions at: UBBG (GYANDZHA , AZ) observed 2000 UTC 17 February 2019
Temperature: 6.0°C (43°F)
Dewpoint: -3.0°C (27°F) [RH = 52%]
Pressure (altimeter): 29.97 inches Hg (1015.0 mb)
Winds: from the W (280 degrees) at 16 MPH (14 knots; 7.2 m/s)
Visibility: 6 or more miles (10+ km)
Ceiling: at least 12,000 feet AGL
Clouds: few clouds at 10000 feet AGL
Weather: no significant weather observed at this time

METAR text: UBBG 171930Z 28016KT 9999 FEW100 06/M03 Q1016 R30/CLRD// NOSIG
Conditions at: UBBG (GYANDZHA , AZ) observed 1930 UTC 17 February 2019
Temperature: 6.0°C (43°F)
Dewpoint: -3.0°C (27°F) [RH = 52%]
Pressure (altimeter): 30.00 inches Hg (1016.0 mb)
Winds: from the W (280 degrees) at 18 MPH (16 knots; 8.2 m/s)
Visibility: 6 or more miles (10+ km)
Ceiling: at least 12,000 feet AGL
Clouds: few clouds at 10000 feet AGL
Weather: no significant weather observed at this time

Forecast for: UBBG (GYANDZHA , AZ)
Text: TAF UBBG 190500Z 1906/2006 30014KT 9999 SCT030 BKN060 TX09/1912Z TNM01/2003Z
Forecast period: 0600 to 0800 UTC 19 February 2019
Forecast type: FROM: standard forecast or significant change
Winds: from the WNW (300 degrees) at 16 MPH (14 knots; 7.2 m/s)
Visibility: 6 or more miles 10+ km)
Ceiling: 6000 feet AGL
Clouds: scattered clouds at 3000 feet AGL
broken clouds at 6000 feet AGL
Weather: no significant weather forecast for this period
Text: BECMG 1908/1910 29022KT
Forecast period: 0800 to 1500 UTC 19 February 2019
Forecast type: BECOMING: Conditions expected to become as follows by 1000 UTC 19 February 2019
Winds: from the WNW (290 degrees) at 25 MPH (22 knots; 11.3 m/s)
Visibility: 6 or more miles 10+ km)
Ceiling: 6000 feet AGL
Clouds: scattered clouds at 3000 feet AGL
broken clouds at 6000 feet AGL
Weather: no significant weather forecast for this period
Text: BECMG 1915/1917 VRB04KT
Forecast period: 1500 UTC 19 February 2019 to 0600 UTC 20 February 2019
Forecast type: BECOMING: Conditions expected to become as follows by 1700 UTC 19 February 2019
Winds: variable direction winds at 5 MPH (4 knots; 2.1 m/s)
Visibility: 6 or more miles 10+ km)
Ceiling: 6000 feet AGL
Clouds: scattered clouds at 3000 feet AGL
broken clouds at 6000 feet AGL
Weather: no significant weather forecast for this period